EST,Max TemperatureF,Mean TemperatureF,Min TemperatureF,Max Dew PointF,MeanDew PointF,Min DewpointF,Max Humidity, Mean Humidity, Min Humidity, Max Sea Level PressureIn, Mean Sea Level PressureIn, Min Sea Level PressureIn, Max VisibilityMiles, Mean VisibilityMiles, Min VisibilityMiles, Max Wind SpeedMPH, Mean Wind SpeedMPH, Max Gust SpeedMPH,PrecipitationIn, CloudCover, Events, WindDirDegrees
2013-12-1,54,41,28,36,29,22,92,63,34,30.14,30.06,29.97,10,10,5,12,6,,0.00,2,,237
2013-12-2,53,42,30,37,35,30,89,74,59,29.95,29.84,29.75,10,8,4,12,3,13,T,6,,126
2013-12-3,51,41,31,48,41,30,100,90,79,29.83,29.78,29.75,8,3,0,14,5,16,0.00,4,Fog,147
2013-12-4,65,54,42,58,52,41,100,86,72,29.80,29.73,29.63,10,4,0,15,8,20,T,7,Fog-Rain,158
2013-12-5,64,45,25,56,32,23,92,81,70,30.25,30.05,29.74,10,6,1,18,8,25,0.48,8,Rain-Snow,312
2013-12-6,25,24,22,22,20,17,88,85,81,30.47,30.26,30.16,10,2,0,16,9,19,0.42,8,Fog-Snow,356
2013-12-7,24,15,5,15,9,2,91,75,59,30.66,30.59,30.48,10,10,8,12,6,14,0.00,0,,2
2013-12-8,30,25,20,28,21,12,92,80,68,30.52,30.19,30.00,10,6,1,16,9,21,0.01,8,Rain-Snow,121
2013-12-9,30,25,20,28,19,13,92,74,55,30.28,30.16,30.01,10,8,1,18,8,26,T,6,Snow,272
2013-12-10,25,16,7,17,13,3,91,73,55,30.39,30.25,30.19,10,6,1,22,6,28,0.06,4,Snow,257
2013-12-11,30,16,2,21,11,-2,92,77,62,30.58,30.42,30.34,10,9,3,16,5,23,0.00,3,,281
2013-12-12,22,9,-4,6,-1,-9,91,61,31,30.61,30.52,30.36,10,10,10,17,7,20,0.00,0,,240
2013-12-13,38,25,12,30,21,6,92,68,44,30.34,30.20,30.10,10,7,1,18,7,24,T,4,Snow,178
2013-12-14,36,33,30,34,31,25,96,91,85,30.07,29.89,29.74,10,4,0,14,7,21,0.41,8,Fog-Rain-Snow,136
2013-12-15,30,26,22,26,19,15,85,77,68,30.14,30.09,29.96,10,9,5,18,10,27,T,8,Snow,265
2013-12-16,37,32,27,30,28,24,92,84,75,30.12,30.06,29.99,10,5,2,13,4,17,0.01,7,Snow,209
2013-12-17,35,29,23,27,23,20,92,84,75,30.21,30.11,30.03,9,6,2,15,7,22,T,6,Snow,272
2013-12-18,43,31,19,21,15,12,88,62,35,30.30,30.19,30.04,10,10,7,17,8,24,0.00,0,,222
2013-12-19,56,49,42,46,36,23,71,55,39,30.05,29.99,29.90,10,10,10,18,12,27,0.00,3,,206
2013-12-20,63,59,54,58,52,45,90,78,66,29.88,29.83,29.77,10,8,2,24,15,33,0.47,8,Rain,215
2013-12-21,59,51,43,57,47,41,100,95,89,29.82,29.67,29.41,10,4,0,20,6,29,4.82,8,Fog-Rain-Thunderstorm,29
2013-12-22,61,47,33,58,37,28,93,88,82,30.13,29.84,29.43,10,6,2,25,12,36,0.03,8,Rain,252
2013-12-23,33,26,19,27,20,13,85,78,71,30.47,30.34,30.11,10,10,8,15,8,22,T,8,,287
2013-12-24,21,14,7,10,5,-2,76,64,52,30.61,30.53,30.43,10,10,9,14,6,19,T,2,Snow,261
2013-12-25,32,26,20,24,16,10,72,63,53,30.46,30.33,30.23,10,10,10,14,8,17,0.00,7,,201
2013-12-26,38,33,27,26,24,21,78,65,52,30.39,30.32,30.22,10,10,7,16,8,22,0.00,4,,254
2013-12-27,48,39,30,30,26,22,72,59,46,30.41,30.35,30.29,10,10,10,13,8,18,0.00,0,,225
2013-12-28,53,43,33,32,29,26,75,57,39,30.27,30.18,29.99,10,10,10,15,8,22,0.00,0,,203
2013-12-29,45,36,27,36,30,24,92,76,59,30.12,29.94,29.85,10,7,2,16,9,23,0.03,8,Rain,267
2013-12-30,27,23,19,22,14,10,92,74,55,30.32,30.23,30.12,10,10,7,14,6,19,T,5,,280
2013-12-31,36,29,21,20,15,13,71,59,47,30.40,30.30,30.22,10,10,10,15,8,24,T,3,,237